createdAt,value
2018-01-21T00:00:06.369Z,0.85
2018-01-21T00:02:34.752Z,0.99
2018-01-21T00:05:03.264Z,1.04
2018-01-21T00:07:31.643Z,0.94
2018-01-21T00:10:00.014Z,0.94
2018-01-21T00:12:28.359Z,0.82
2018-01-21T00:14:56.739Z,0.78
2018-01-21T00:17:25.139Z,0.77
2018-01-21T00:19:53.492Z,0.76
2018-01-21T00:22:46.198Z,0.73
2018-01-21T00:25:15.464Z,0.89
2018-01-21T00:27:43.787Z,0.82
2018-01-21T00:30:12.261Z,0.77
2018-01-21T00:32:40.599Z,0.68
2018-01-21T00:35:08.921Z,0.66
2018-01-21T00:37:37.309Z,0.90
2018-01-21T00:40:05.634Z,0.79
2018-01-21T00:42:33.990Z,0.64
2018-01-21T00:45:02.388Z,0.67
2018-01-21T00:47:30.744Z,0.57
2018-01-21T00:49:59.075Z,0.54
2018-01-21T00:52:27.409Z,0.56
2018-01-21T00:54:55.785Z,0.56
2018-01-21T00:57:24.121Z,0.64
2018-01-21T00:59:52.462Z,0.63
2018-01-21T01:02:20.826Z,0.72
2018-01-21T01:04:55.249Z,0.75
2018-01-21T01:07:23.585Z,0.67
2018-01-21T01:09:51.974Z,0.66
2018-01-21T01:12:20.374Z,0.60
2018-01-21T01:14:50.800Z,0.63
2018-01-21T01:17:19.184Z,0.59
2018-01-21T01:19:47.582Z,0.72
2018-01-21T01:22:15.908Z,0.77
2018-01-21T01:24:44.325Z,0.73
2018-01-21T01:27:12.668Z,0.79
2018-01-21T01:29:41.024Z,0.80
2018-01-21T01:32:09.415Z,0.89
2018-01-21T01:34:37.861Z,0.91
2018-01-21T01:37:06.234Z,1.06
2018-01-21T01:39:34.566Z,0.99
2018-01-21T01:42:02.957Z,1.18
2018-01-21T01:44:31.276Z,1.20
2018-01-21T01:46:59.588Z,1.23
2018-01-21T01:49:27.949Z,1.25
2018-01-21T01:51:56.286Z,1.27
2018-01-21T01:54:24.653Z,1.27
2018-01-21T01:56:53.045Z,1.31
2018-01-21T01:59:21.422Z,1.31
2018-01-21T02:01:49.888Z,1.41
2018-01-21T02:04:19.325Z,1.33
2018-01-21T02:06:47.617Z,1.30
2018-01-21T02:09:17.077Z,1.34
2018-01-21T02:11:45.466Z,1.43
2018-01-21T02:14:13.797Z,1.39
2018-01-21T02:16:42.157Z,1.36
2018-01-21T02:19:10.557Z,1.31
2018-01-21T02:21:38.895Z,1.32
2018-01-21T02:24:07.253Z,1.35
2018-01-21T02:26:35.601Z,1.39
2018-01-21T02:29:03.932Z,1.31
2018-01-21T02:31:32.326Z,1.27
2018-01-21T02:34:00.682Z,1.30
2018-01-21T02:36:28.998Z,1.40
2018-01-21T02:38:57.387Z,1.43
2018-01-21T02:41:25.771Z,1.31
2018-01-21T02:43:54.092Z,1.25
2018-01-21T02:46:22.404Z,1.17
2018-01-21T02:48:50.761Z,1.13
2018-01-21T02:51:19.097Z,1.14
2018-01-21T02:53:47.438Z,1.02
2018-01-21T02:56:17.923Z,0.90
2018-01-21T02:58:46.320Z,0.87
2018-01-21T03:01:14.779Z,0.88
2018-01-21T03:03:43.167Z,0.84
2018-01-21T03:06:11.500Z,0.80
2018-01-21T03:08:39.810Z,0.81
2018-01-21T03:11:08.158Z,0.82
2018-01-21T03:13:36.510Z,0.88
2018-01-21T03:16:04.852Z,0.83
2018-01-21T03:18:33.210Z,0.84
2018-01-21T03:21:01.524Z,0.82
2018-01-21T03:23:29.862Z,0.76
2018-01-21T03:25:58.219Z,0.73
2018-01-21T03:28:26.557Z,0.73
2018-01-21T03:30:54.909Z,0.72
2018-01-21T03:33:23.241Z,0.70
2018-01-21T03:35:51.573Z,0.69
2018-01-21T03:38:19.892Z,0.66
2018-01-21T03:40:48.232Z,0.62
2018-01-21T03:43:16.548Z,0.59
2018-01-21T03:45:44.925Z,0.71
2018-01-21T03:48:13.298Z,0.69
2018-01-21T03:50:41.640Z,0.80
2018-01-21T03:53:09.973Z,0.75
2018-01-21T03:55:38.372Z,0.73
2018-01-21T03:58:06.685Z,0.71
2018-01-21T04:00:35.018Z,0.63
2018-01-21T04:03:03.425Z,0.60
2018-01-21T04:05:31.754Z,0.57
2018-01-21T04:08:00.078Z,0.56
2018-01-21T04:10:28.414Z,0.56
2018-01-21T04:12:56.758Z,0.54
2018-01-21T04:15:25.077Z,0.56
2018-01-21T04:17:53.495Z,0.56
2018-01-21T04:20:21.850Z,0.51
2018-01-21T04:22:50.415Z,0.47
2018-01-21T04:25:18.885Z,0.46
2018-01-21T04:27:47.196Z,0.53
2018-01-21T04:30:15.489Z,0.56
2018-01-21T04:32:43.813Z,0.59
2018-01-21T04:35:12.135Z,0.62
2018-01-21T04:37:40.438Z,0.74
2018-01-21T04:40:08.823Z,0.73
2018-01-21T04:42:37.133Z,0.77
2018-01-21T04:45:05.462Z,0.94
2018-01-21T04:47:33.820Z,0.87
2018-01-21T04:50:02.191Z,0.82
2018-01-21T04:52:30.577Z,0.77
2018-01-21T04:54:58.919Z,0.74
2018-01-21T04:57:27.267Z,0.67
2018-01-21T04:59:55.589Z,0.68
2018-01-21T05:02:24.075Z,0.71
2018-01-21T05:04:52.542Z,0.67
2018-01-21T05:07:21.936Z,0.66
2018-01-21T05:09:50.315Z,0.69
2018-01-21T05:12:18.628Z,0.70
2018-01-21T05:14:46.973Z,0.71
2018-01-21T05:17:15.342Z,0.78
2018-01-21T05:19:50.816Z,0.96
2018-01-21T05:22:19.144Z,0.90
2018-01-21T05:24:47.461Z,0.87
2018-01-21T05:27:15.811Z,0.87
2018-01-21T05:29:44.440Z,0.91
2018-01-21T05:32:13.099Z,0.90
2018-01-21T05:34:41.458Z,0.90
2018-01-21T05:37:09.886Z,0.88
2018-01-21T05:39:38.213Z,0.88
2018-01-21T05:42:06.630Z,0.87
2018-01-21T05:44:34.972Z,0.90
2018-01-21T05:47:03.411Z,1.00
2018-01-21T05:49:31.731Z,0.93
2018-01-21T05:52:00.090Z,0.89
2018-01-21T05:54:28.463Z,0.96
2018-01-21T05:56:56.792Z,1.06
2018-01-21T05:59:25.180Z,0.98
2018-01-21T06:01:54.557Z,0.99
2018-01-21T06:04:22.934Z,1.07
2018-01-21T06:06:51.309Z,0.98
2018-01-21T06:09:19.636Z,1.04
2018-01-21T06:11:47.990Z,1.01
2018-01-21T06:14:17.408Z,0.95
2018-01-21T06:16:45.713Z,0.91
2018-01-21T06:19:14.201Z,0.84
2018-01-21T06:21:42.553Z,0.79
2018-01-21T06:24:10.892Z,0.76
2018-01-21T06:26:39.257Z,0.74
2018-01-21T06:29:07.656Z,0.68
2018-01-21T06:31:35.950Z,0.57
2018-01-21T06:34:04.347Z,0.53
2018-01-21T06:36:32.724Z,0.49
2018-01-21T06:39:01.037Z,0.57
2018-01-21T06:41:29.351Z,0.55
2018-01-21T06:43:57.728Z,0.55
2018-01-21T06:46:26.117Z,0.50
2018-01-21T06:48:54.446Z,0.40
2018-01-21T06:51:22.841Z,0.34
2018-01-21T06:53:51.153Z,0.37
2018-01-21T06:56:19.478Z,0.31
2018-01-21T06:58:47.894Z,0.36
2018-01-21T07:01:16.230Z,0.37
2018-01-21T07:03:44.602Z,0.32
2018-01-21T07:06:12.975Z,0.32
2018-01-21T07:08:41.308Z,0.46
2018-01-21T07:11:09.650Z,0.61
2018-01-21T07:13:40.020Z,0.78
2018-01-21T07:16:08.408Z,2.69
2018-01-21T07:18:38.873Z,3.99
2018-01-21T07:21:07.334Z,4.85
2018-01-21T07:23:42.945Z,5.88
2018-01-21T07:26:12.376Z,6.48
2018-01-21T07:28:40.756Z,5.63
2018-01-21T07:31:11.228Z,4.89
2018-01-21T07:33:39.755Z,4.80
2018-01-21T07:36:08.160Z,4.10
2018-01-21T07:38:36.485Z,3.73
2018-01-21T07:41:04.861Z,4.34
2018-01-21T07:43:33.304Z,4.53
2018-01-21T07:46:02.704Z,4.51
2018-01-21T07:48:31.091Z,4.44
2018-01-21T07:50:59.421Z,4.51
2018-01-21T07:53:27.889Z,4.18
2018-01-21T07:55:56.389Z,3.73
2018-01-21T07:58:24.728Z,2.97
2018-01-21T08:00:54.132Z,2.84
2018-01-21T08:03:22.559Z,2.94
2018-01-21T08:05:51.064Z,3.17
2018-01-21T08:08:19.392Z,2.56
2018-01-21T08:10:47.861Z,2.83
2018-01-21T08:13:16.174Z,2.92
2018-01-21T08:15:44.486Z,4.81
2018-01-21T08:18:12.918Z,7.60
2018-01-21T08:20:41.280Z,9.75
2018-01-21T08:23:09.643Z,11.94
2018-01-21T08:25:38.048Z,13.91
2018-01-21T08:28:06.404Z,15.37
2018-01-21T08:30:34.766Z,16.32
2018-01-21T08:33:03.192Z,17.64
2018-01-21T08:35:37.494Z,17.40
2018-01-21T08:38:12.102Z,17.64
2018-01-21T08:40:46.485Z,18.23
2018-01-21T08:43:14.903Z,18.70
2018-01-21T08:45:43.248Z,18.83
2018-01-21T08:48:11.612Z,18.24
2018-01-21T08:50:40.087Z,18.38
2018-01-21T08:53:08.522Z,17.77
2018-01-21T08:55:36.916Z,18.09
2018-01-21T08:58:05.264Z,17.96
2018-01-21T09:00:33.602Z,18.63
2018-01-21T09:03:01.988Z,18.74
2018-01-21T09:05:30.444Z,19.87
2018-01-21T09:07:58.886Z,21.28
2018-01-21T09:10:27.262Z,23.24
2018-01-21T09:12:55.618Z,20.38
2018-01-21T09:15:24.060Z,20.71
2018-01-21T09:17:52.465Z,22.38
2018-01-21T09:20:20.895Z,22.10
2018-01-21T09:22:49.241Z,21.78
2018-01-21T09:25:17.589Z,22.76
2018-01-21T09:27:46.050Z,22.89
2018-01-21T09:30:14.401Z,22.14
2018-01-21T09:32:42.935Z,22.62
2018-01-21T09:35:11.310Z,23.09
2018-01-21T09:37:39.653Z,21.39
2018-01-21T09:40:08.039Z,22.25
2018-01-21T09:42:36.462Z,22.69
2018-01-21T09:45:04.798Z,20.71
2018-01-21T09:47:33.167Z,20.84
2018-01-21T09:50:01.532Z,20.70
2018-01-21T09:52:29.841Z,18.90
2018-01-21T09:54:58.164Z,17.71
2018-01-21T09:57:26.558Z,19.13
2018-01-21T09:59:54.945Z,18.18
2018-01-21T10:02:23.293Z,17.29
2018-01-21T10:04:51.687Z,15.39
2018-01-21T10:07:20.093Z,14.15
2018-01-21T10:09:48.409Z,14.38
2018-01-21T10:12:16.810Z,15.61
2018-01-21T10:14:45.174Z,14.86
2018-01-21T10:17:13.645Z,15.80
2018-01-21T10:19:42.010Z,18.14
2018-01-21T10:22:10.361Z,15.63
2018-01-21T10:24:38.751Z,17.54
2018-01-21T10:27:07.098Z,17.13
2018-01-21T10:29:35.429Z,17.18
2018-01-21T10:32:03.782Z,18.92
2018-01-21T10:34:32.203Z,19.56
2018-01-21T10:37:00.583Z,20.17
2018-01-21T10:39:28.955Z,20.46
2018-01-21T10:41:57.292Z,21.35
2018-01-21T10:44:25.657Z,22.19
2018-01-21T10:46:53.974Z,22.15
2018-01-21T10:49:22.468Z,23.15
2018-01-21T10:51:50.880Z,22.67
2018-01-21T10:54:19.255Z,22.68
2018-01-21T10:56:47.739Z,22.65
2018-01-21T10:59:16.177Z,22.88
2018-01-21T11:01:44.517Z,22.29
2018-01-21T11:04:12.879Z,19.84
2018-01-21T11:06:41.207Z,19.43
2018-01-21T11:09:09.531Z,20.44
2018-01-21T11:11:37.870Z,21.06
2018-01-21T11:14:06.204Z,22.51
2018-01-21T11:16:34.552Z,23.75
2018-01-21T11:19:02.917Z,21.81
2018-01-21T11:21:31.638Z,20.57
2018-01-21T11:23:59.964Z,20.87
2018-01-21T11:26:28.512Z,22.75
2018-01-21T11:28:56.883Z,21.18
2018-01-21T11:31:25.214Z,21.81
2018-01-21T11:33:53.552Z,19.90
2018-01-21T11:36:21.895Z,20.51
2018-01-21T11:38:50.226Z,20.56
2018-01-21T11:41:18.587Z,21.30
2018-01-21T11:43:46.935Z,21.21
2018-01-21T11:46:15.258Z,21.72
2018-01-21T11:48:43.621Z,19.67
2018-01-21T11:51:11.973Z,19.91
2018-01-21T11:53:40.314Z,19.40
2018-01-21T11:56:08.658Z,18.34
2018-01-21T11:58:37.031Z,19.08
2018-01-21T12:01:03.793Z,18.56
2018-01-21T12:03:30.532Z,19.22
2018-01-21T12:05:58.914Z,17.11
2018-01-21T12:08:27.261Z,18.90
2018-01-21T12:10:55.664Z,18.75
2018-01-21T12:13:24.025Z,18.72
2018-01-21T12:15:52.361Z,18.96
2018-01-21T12:18:20.738Z,18.70
2018-01-21T12:20:49.116Z,18.31
2018-01-21T12:23:15.809Z,17.58
2018-01-21T12:25:42.535Z,18.48
2018-01-21T12:28:09.974Z,17.05
2018-01-21T12:30:37.788Z,15.28
2018-01-21T12:33:05.331Z,14.08
2018-01-21T12:35:32.783Z,13.40
2018-01-21T12:38:01.144Z,12.62
2018-01-21T12:40:29.562Z,11.64
2018-01-21T12:42:57.926Z,11.26
2018-01-21T12:45:26.259Z,10.77
2018-01-21T12:47:54.603Z,10.17
2018-01-21T12:50:22.053Z,9.72
2018-01-21T12:52:48.938Z,9.63
2018-01-21T12:55:15.675Z,9.39
2018-01-21T12:57:42.444Z,10.74
2018-01-21T13:00:09.190Z,11.36
2018-01-21T13:02:35.894Z,11.28
2018-01-21T13:05:02.681Z,11.08
2018-01-21T13:07:29.417Z,11.29
2018-01-21T13:09:56.214Z,11.02
2018-01-21T13:12:23.104Z,10.33
2018-01-21T13:14:49.860Z,10.00
2018-01-21T13:17:16.624Z,10.29
2018-01-21T13:19:43.285Z,10.01
2018-01-21T13:22:10.762Z,9.89
2018-01-21T13:24:38.212Z,9.59
2018-01-21T13:27:04.910Z,9.45
2018-01-21T13:29:31.686Z,9.29
2018-01-21T13:31:58.429Z,9.18
2018-01-21T13:34:25.173Z,8.86
2018-01-21T13:36:51.871Z,8.64
2018-01-21T13:39:18.563Z,8.58
2018-01-21T13:41:46.019Z,8.68
2018-01-21T13:44:12.746Z,8.73
2018-01-21T13:46:39.523Z,8.65
2018-01-21T13:49:07.124Z,8.59
2018-01-21T13:51:33.913Z,8.53
2018-01-21T13:54:01.354Z,8.49
2018-01-21T13:56:28.056Z,8.42
2018-01-21T13:58:55.470Z,8.47
2018-01-21T14:01:22.226Z,8.45
2018-01-21T14:03:48.932Z,8.49
2018-01-21T14:06:15.634Z,8.56
2018-01-21T14:08:42.511Z,8.52
2018-01-21T14:11:09.245Z,8.48
2018-01-21T14:13:35.967Z,8.32
2018-01-21T14:16:02.729Z,8.12
2018-01-21T14:18:30.147Z,8.02
2018-01-21T14:20:56.841Z,7.64
2018-01-21T14:23:23.622Z,7.65
2018-01-21T14:25:50.352Z,7.60
2018-01-21T14:28:17.116Z,7.46
2018-01-21T14:30:43.819Z,7.50
2018-01-21T14:33:10.532Z,7.47
2018-01-21T14:35:37.225Z,7.35
2018-01-21T14:38:04.008Z,7.26
2018-01-21T14:40:30.883Z,7.20
2018-01-21T14:42:58.499Z,7.22
2018-01-21T14:45:25.222Z,7.19
2018-01-21T14:47:51.906Z,7.18
2018-01-21T14:50:18.602Z,7.05
2018-01-21T14:52:45.362Z,7.07
2018-01-21T14:55:12.144Z,6.99
2018-01-21T14:57:38.865Z,6.90
2018-01-21T15:00:07.663Z,6.82
2018-01-21T15:02:34.341Z,6.86
2018-01-21T15:05:01.759Z,6.91
2018-01-21T15:07:28.469Z,6.98
2018-01-21T15:09:55.150Z,6.93
2018-01-21T15:12:21.866Z,6.83
2018-01-21T15:14:48.650Z,6.78
2018-01-21T15:17:19.058Z,6.78
2018-01-21T15:19:45.790Z,6.66
2018-01-21T15:22:12.581Z,6.52
2018-01-21T15:24:39.354Z,6.35
2018-01-21T15:27:07.103Z,6.28
2018-01-21T15:29:33.871Z,6.23
2018-01-21T15:32:00.577Z,6.05
2018-01-21T15:34:27.380Z,5.92
2018-01-21T15:36:55.215Z,5.86
2018-01-21T15:39:22.700Z,5.76
2018-01-21T15:41:49.566Z,5.59
2018-01-21T15:44:16.371Z,5.61
2018-01-21T15:46:43.788Z,5.47
2018-01-21T15:49:10.471Z,5.37
2018-01-21T15:51:38.130Z,5.28
2018-01-21T15:54:05.645Z,5.15
2018-01-21T15:56:32.346Z,5.03
2018-01-21T15:58:59.815Z,5.08
2018-01-21T16:01:26.730Z,4.97
2018-01-21T16:03:53.477Z,4.96
2018-01-21T16:06:20.256Z,4.98
2018-01-21T16:08:47.709Z,4.89
2018-01-21T16:11:15.209Z,4.85
2018-01-21T16:13:42.020Z,4.74
2018-01-21T16:16:09.511Z,4.76
2018-01-21T16:18:37.044Z,4.71
2018-01-21T16:21:04.555Z,4.73
2018-01-21T16:23:31.209Z,4.67
2018-01-21T16:25:57.945Z,4.67
2018-01-21T16:28:24.672Z,4.63
2018-01-21T16:30:51.432Z,4.52
2018-01-21T16:33:18.173Z,4.51
2018-01-21T16:35:45.752Z,4.53
2018-01-21T16:38:33.855Z,4.57
2018-01-21T16:41:00.638Z,4.51
2018-01-21T16:43:27.403Z,4.33
2018-01-21T16:45:54.130Z,4.33
2018-01-21T16:48:20.934Z,4.28
2018-01-21T16:50:47.682Z,4.32
2018-01-21T16:53:14.381Z,4.24
2018-01-21T16:55:41.129Z,4.26
2018-01-21T16:58:07.814Z,4.23
2018-01-21T17:00:34.500Z,4.27
2018-01-21T17:03:01.315Z,4.31
2018-01-21T17:05:28.077Z,4.20
2018-01-21T17:07:54.852Z,4.19
2018-01-21T17:10:21.622Z,4.21
2018-01-21T17:12:49.053Z,4.12
2018-01-21T17:15:15.779Z,4.09
2018-01-21T17:17:42.839Z,4.09
2018-01-21T17:20:09.589Z,4.06
2018-01-21T17:22:36.459Z,4.02
2018-01-21T17:25:03.982Z,3.97
2018-01-21T17:27:30.714Z,3.80
2018-01-21T17:29:58.193Z,3.90
2018-01-21T17:32:24.938Z,3.85
2018-01-21T17:34:51.675Z,3.77
2018-01-21T17:37:18.390Z,3.69
2018-01-21T17:39:45.322Z,3.71
2018-01-21T17:42:12.214Z,3.64
2018-01-21T17:44:38.959Z,3.60
2018-01-21T17:47:05.895Z,3.47
2018-01-21T17:49:32.640Z,3.52
2018-01-21T17:51:59.337Z,3.32
2018-01-21T17:54:26.816Z,3.26
2018-01-21T17:56:54.257Z,3.14
2018-01-21T17:59:21.924Z,3.03
2018-01-21T18:01:49.466Z,2.98
2018-01-21T18:04:16.323Z,2.92
2018-01-21T18:06:43.338Z,2.74
2018-01-21T18:09:10.126Z,2.64
2018-01-21T18:11:37.606Z,2.53
2018-01-21T18:14:05.194Z,2.48
2018-01-21T18:16:31.968Z,2.53
2018-01-21T18:18:58.698Z,2.54
2018-01-21T18:21:25.361Z,2.51
2018-01-21T18:23:52.325Z,2.51
2018-01-21T18:26:19.038Z,2.61
2018-01-21T18:28:45.756Z,2.56
2018-01-21T18:31:12.554Z,2.50
2018-01-21T18:33:39.251Z,2.49
2018-01-21T18:36:05.952Z,2.40
2018-01-21T18:38:32.687Z,2.35
2018-01-21T18:40:59.374Z,2.42
2018-01-21T18:43:26.087Z,2.55
2018-01-21T18:45:53.690Z,2.60
2018-01-21T18:48:21.684Z,2.65
2018-01-21T18:50:53.618Z,2.57
2018-01-21T18:53:22.638Z,2.64
2018-01-21T18:55:49.313Z,2.72
2018-01-21T18:58:16.179Z,2.58
2018-01-21T19:00:43.778Z,2.57
2018-01-21T19:03:10.550Z,2.62
2018-01-21T19:05:37.246Z,2.68
2018-01-21T19:08:04.723Z,2.84
2018-01-21T19:10:31.428Z,2.97
2018-01-21T19:12:58.149Z,3.04
2018-01-21T19:15:24.937Z,3.22
2018-01-21T19:17:52.500Z,3.32
2018-01-21T19:20:19.290Z,3.31
2018-01-21T19:22:46.069Z,3.40
2018-01-21T19:25:12.820Z,3.43
2018-01-21T19:27:40.319Z,3.50
2018-01-21T19:30:07.109Z,3.65
2018-01-21T19:32:33.913Z,3.75
2018-01-21T19:35:00.635Z,3.71
2018-01-21T19:37:28.206Z,3.61
2018-01-21T19:40:01.429Z,3.40
2018-01-21T19:42:35.285Z,3.42
2018-01-21T19:45:02.094Z,3.45
2018-01-21T19:47:28.796Z,3.61
2018-01-21T19:49:56.280Z,3.63
2018-01-21T19:52:23.024Z,3.67
2018-01-21T19:54:49.748Z,3.54
2018-01-21T19:57:17.235Z,3.49
2018-01-21T19:59:44.122Z,3.60
2018-01-21T20:02:10.928Z,3.60
2018-01-21T20:04:37.697Z,3.62
2018-01-21T20:07:04.633Z,3.62
2018-01-21T20:09:31.410Z,3.50
2018-01-21T20:11:58.299Z,3.44
2018-01-21T20:14:25.074Z,3.31
2018-01-21T20:16:51.745Z,3.32
2018-01-21T20:19:18.490Z,3.42
2018-01-21T20:21:45.998Z,3.39
2018-01-21T20:24:12.837Z,3.32
2018-01-21T20:26:39.610Z,3.25
2018-01-21T20:29:06.327Z,3.25
2018-01-21T20:31:33.127Z,3.09
2018-01-21T20:33:59.827Z,2.96
2018-01-21T20:36:26.526Z,2.89
2018-01-21T20:38:53.383Z,2.87
2018-01-21T20:41:20.946Z,2.90
2018-01-21T20:43:48.456Z,2.98
2018-01-21T20:46:16.222Z,3.19
2018-01-21T20:48:43.110Z,3.22
2018-01-21T20:51:15.756Z,3.25
2018-01-21T20:53:48.589Z,3.22
2018-01-21T20:56:15.440Z,3.18
2018-01-21T20:58:42.903Z,3.07
2018-01-21T21:01:10.395Z,3.03
2018-01-21T21:03:39.211Z,3.05
2018-01-21T21:06:07.997Z,3.04
2018-01-21T21:08:34.713Z,2.96
2018-01-21T21:11:02.158Z,2.98
2018-01-21T21:13:29.639Z,2.99
2018-01-21T21:15:56.410Z,3.01
2018-01-21T21:18:23.162Z,2.95
2018-01-21T21:20:50.611Z,2.93
2018-01-21T21:23:17.366Z,2.87
2018-01-21T21:25:44.061Z,2.81
2018-01-21T21:28:11.514Z,2.79
2018-01-21T21:30:39.025Z,2.76
2018-01-21T21:33:05.742Z,2.77
2018-01-21T21:35:32.532Z,2.75
2018-01-21T21:37:59.259Z,2.68
2018-01-21T21:40:25.947Z,2.62
2018-01-21T21:42:52.644Z,2.69
2018-01-21T21:45:19.353Z,2.68
2018-01-21T21:47:46.905Z,2.72
2018-01-21T21:50:13.719Z,2.65
2018-01-21T21:52:40.418Z,2.71
2018-01-21T21:55:07.135Z,2.71
2018-01-21T21:57:34.870Z,2.66
2018-01-21T22:00:01.759Z,2.61
2018-01-21T22:02:29.316Z,2.61
2018-01-21T22:04:56.136Z,2.60
2018-01-21T22:07:23.895Z,2.52
2018-01-21T22:09:50.684Z,2.48
2018-01-21T22:12:18.132Z,2.44
2018-01-21T22:14:45.616Z,2.41
2018-01-21T22:17:12.310Z,2.39
2018-01-21T22:19:39.101Z,2.35
2018-01-21T22:22:06.599Z,2.35
2018-01-21T22:24:33.497Z,2.38
2018-01-21T22:27:00.947Z,2.34
2018-01-21T22:29:27.834Z,2.27
2018-01-21T22:31:54.540Z,2.26
2018-01-21T22:34:21.288Z,2.24
2018-01-21T22:36:48.723Z,2.22
2018-01-21T22:39:15.449Z,2.22
2018-01-21T22:41:42.130Z,2.20
2018-01-21T22:44:08.917Z,2.24
2018-01-21T22:46:35.608Z,2.33
2018-01-21T22:49:02.391Z,2.37
2018-01-21T22:51:29.891Z,2.31
2018-01-21T22:53:56.575Z,2.23
2018-01-21T22:56:24.082Z,2.13
2018-01-21T22:58:50.801Z,2.14
2018-01-21T23:01:17.552Z,2.10
2018-01-21T23:03:44.258Z,2.11
2018-01-21T23:06:11.146Z,2.08
2018-01-21T23:08:38.112Z,2.07
2018-01-21T23:11:04.862Z,2.05
2018-01-21T23:13:31.603Z,2.02
2018-01-21T23:15:59.427Z,1.99
2018-01-21T23:18:26.904Z,1.96
2018-01-21T23:21:01.413Z,1.99
2018-01-21T23:23:28.860Z,2.00
2018-01-21T23:25:55.574Z,1.98
2018-01-21T23:28:22.269Z,2.04
2018-01-21T23:30:50.782Z,2.04
2018-01-21T23:33:18.529Z,2.01
2018-01-21T23:35:45.994Z,1.97
2018-01-21T23:38:12.700Z,2.01
2018-01-21T23:40:39.381Z,2.03
2018-01-21T23:43:06.059Z,2.04
2018-01-21T23:45:32.729Z,2.05
2018-01-21T23:47:59.386Z,2.08
2018-01-21T23:50:26.890Z,2.18
2018-01-21T23:52:53.571Z,2.21
2018-01-21T23:55:20.268Z,2.27
2018-01-21T23:57:46.954Z,2.35
